createdAt,value
2022-10-22T00:00:42.847Z,7.93
2022-10-22T00:03:31.963Z,7.93
2022-10-22T00:06:01.592Z,7.94
2022-10-22T00:08:32.283Z,7.95
2022-10-22T00:11:08.700Z,7.95
2022-10-22T00:13:37.955Z,7.96
2022-10-22T00:16:07.482Z,7.96
2022-10-22T00:18:36.907Z,7.96
2022-10-22T00:21:07.899Z,7.96
2022-10-22T00:23:41.264Z,7.97
2022-10-22T00:26:11.179Z,7.98
2022-10-22T00:28:40.398Z,7.98
2022-10-22T00:31:09.902Z,7.97
2022-10-22T00:33:39.183Z,7.98
2022-10-22T00:36:09.576Z,7.99
2022-10-22T00:38:40.339Z,8.00
2022-10-22T00:41:10.378Z,8.01
2022-10-22T00:43:54.138Z,8.01
2022-10-22T00:46:23.834Z,8.02
2022-10-22T00:48:54.052Z,8.03
2022-10-22T00:51:26.841Z,8.03
2022-10-22T00:54:03.006Z,8.04
2022-10-22T00:56:33.104Z,8.05
2022-10-22T00:59:03.702Z,8.06
2022-10-22T01:01:33.753Z,8.07
2022-10-22T01:04:02.650Z,8.06
2022-10-22T01:06:34.314Z,8.07
2022-10-22T01:09:15.391Z,8.07
2022-10-22T01:11:56.262Z,8.08
2022-10-22T01:14:32.664Z,8.08
2022-10-22T01:17:09.212Z,8.09
2022-10-22T01:19:50.765Z,8.09
2022-10-22T01:22:30.749Z,8.11
2022-10-22T01:25:10.160Z,8.12
2022-10-22T01:27:56.053Z,8.13
2022-10-22T01:30:27.339Z,8.13
2022-10-22T01:33:01.078Z,8.15
2022-10-22T01:38:08.837Z,8.16
2022-10-22T01:40:38.982Z,8.16
2022-10-22T01:43:09.950Z,8.17
2022-10-22T01:45:44.076Z,8.18
2022-10-22T01:48:31.227Z,8.19
2022-10-22T01:51:24.382Z,8.19
2022-10-22T01:53:59.274Z,8.20
2022-10-22T01:56:42.166Z,8.21
2022-10-22T01:59:24.270Z,8.22
2022-10-22T02:02:01.844Z,8.23
2022-10-22T02:04:36.979Z,8.23
2022-10-22T02:07:10.167Z,8.23
2022-10-22T02:09:41.556Z,8.23
2022-10-22T02:12:11.978Z,8.24
2022-10-22T02:14:45.199Z,8.25
2022-10-22T02:17:19.975Z,8.25
2022-10-22T02:19:54.716Z,8.26
2022-10-22T02:22:24.730Z,8.26
2022-10-22T02:24:54.113Z,8.26
2022-10-22T02:27:29.307Z,8.27
2022-10-22T02:33:53.510Z,8.26
2022-10-22T02:36:24.640Z,8.27
2022-10-22T02:38:55.607Z,8.26
2022-10-22T02:41:25.491Z,8.27
2022-10-22T02:43:55.780Z,8.27
2022-10-22T02:46:25.618Z,8.27
2022-10-22T02:48:56.400Z,8.26
2022-10-22T02:51:25.845Z,8.26
2022-10-22T02:53:54.969Z,8.27
2022-10-22T02:56:24.547Z,8.26
2022-10-22T02:58:53.989Z,8.26
2022-10-22T03:01:23.510Z,8.26
2022-10-22T03:03:52.931Z,8.26
2022-10-22T03:08:54.792Z,8.25
2022-10-22T03:11:24.158Z,8.25
2022-10-22T03:13:53.444Z,8.24
2022-10-22T03:16:22.766Z,8.24
2022-10-22T03:18:52.026Z,8.23
2022-10-22T03:21:31.197Z,8.24
2022-10-22T03:24:03.937Z,8.23
2022-10-22T03:26:34.079Z,8.23
2022-10-22T03:29:03.737Z,8.22
2022-10-22T03:31:33.079Z,8.22
2022-10-22T03:34:02.290Z,8.23
2022-10-22T03:36:34.043Z,8.22
2022-10-22T03:39:04.020Z,8.21
2022-10-22T03:41:33.947Z,8.23
2022-10-22T03:44:04.676Z,8.22
2022-10-22T03:46:34.332Z,8.22
2022-10-22T03:49:03.535Z,8.21
2022-10-22T03:51:35.925Z,8.20
2022-10-22T03:54:05.572Z,8.21
2022-10-22T03:56:34.942Z,8.21
2022-10-22T03:59:04.353Z,8.21
2022-10-22T04:01:34.441Z,8.21
2022-10-22T04:04:03.362Z,8.19
2022-10-22T04:06:34.108Z,8.19
2022-10-22T04:09:03.422Z,8.19
2022-10-22T04:11:32.823Z,8.19
2022-10-22T04:14:01.973Z,8.21
2022-10-22T04:16:32.867Z,8.21
2022-10-22T04:19:02.792Z,8.21
2022-10-22T04:21:33.654Z,8.21
2022-10-22T04:24:02.956Z,8.22
2022-10-22T04:26:32.472Z,8.22
2022-10-22T04:29:01.695Z,8.22
2022-10-22T04:31:31.101Z,8.22
2022-10-22T04:34:01.917Z,8.22
2022-10-22T04:36:31.610Z,8.22
2022-10-22T04:39:03.464Z,8.21
2022-10-22T04:41:34.921Z,8.21
2022-10-22T04:44:04.604Z,8.21
2022-10-22T04:46:36.400Z,8.20
2022-10-22T04:49:06.009Z,8.21
2022-10-22T04:51:35.420Z,8.19
2022-10-22T04:54:06.367Z,8.18
2022-10-22T04:56:35.847Z,8.18
2022-10-22T04:59:07.258Z,8.17
2022-10-22T05:01:41.741Z,8.17
2022-10-22T05:04:14.929Z,8.16
2022-10-22T05:06:44.878Z,8.16
2022-10-22T05:09:16.689Z,8.15
2022-10-22T05:11:48.960Z,8.15
2022-10-22T05:14:20.627Z,8.14
2022-10-22T05:16:50.339Z,8.14
2022-10-22T05:19:24.146Z,8.14
2022-10-22T05:21:55.087Z,8.13
2022-10-22T05:24:26.233Z,8.11
2022-10-22T05:26:57.510Z,8.11
2022-10-22T05:29:27.514Z,8.11
2022-10-22T05:31:56.969Z,8.11
2022-10-22T05:34:26.228Z,8.09
2022-10-22T05:36:55.708Z,8.09
2022-10-22T05:39:28.544Z,8.07
2022-10-22T05:41:58.667Z,8.06
2022-10-22T05:44:27.949Z,8.05
2022-10-22T05:46:57.277Z,8.04
2022-10-22T05:49:26.488Z,8.03
2022-10-22T05:51:55.783Z,8.02
2022-10-22T05:54:26.433Z,8.00
2022-10-22T05:56:55.873Z,7.99
2022-10-22T05:59:25.079Z,7.98
2022-10-22T06:01:54.992Z,7.98
2022-10-22T06:04:24.124Z,7.98
2022-10-22T06:06:54.742Z,8.00
2022-10-22T06:09:28.639Z,8.00
2022-10-22T06:11:59.438Z,8.01
2022-10-22T06:14:29.489Z,8.03
2022-10-22T06:17:01.612Z,8.06
2022-10-22T06:19:31.459Z,8.07
2022-10-22T06:22:00.800Z,8.10
2022-10-22T06:24:31.551Z,8.11
2022-10-22T06:27:00.918Z,8.15
2022-10-22T06:29:30.047Z,8.17
2022-10-22T06:31:59.357Z,8.19
2022-10-22T06:34:28.592Z,8.22
2022-10-22T06:36:57.930Z,8.24
2022-10-22T06:39:27.127Z,8.26
2022-10-22T06:41:58.017Z,8.30
2022-10-22T06:44:29.499Z,8.31
2022-10-22T06:46:58.978Z,8.34
2022-10-22T06:49:28.117Z,8.36
2022-10-22T06:51:57.637Z,8.38
2022-10-22T06:54:26.806Z,8.41
2022-10-22T06:56:57.551Z,8.44
2022-10-22T06:59:26.788Z,8.45
2022-10-22T07:01:56.168Z,8.50
2022-10-22T07:04:25.560Z,8.52
2022-10-22T07:06:57.114Z,8.55
2022-10-22T07:09:26.620Z,8.58
2022-10-22T07:11:57.165Z,8.59
2022-10-22T07:14:26.385Z,8.61
2022-10-22T07:16:55.736Z,8.64
2022-10-22T07:19:24.969Z,8.66
2022-10-22T07:21:54.466Z,8.70
2022-10-22T07:24:23.586Z,8.71
2022-10-22T07:26:52.999Z,8.78
2022-10-22T07:29:23.598Z,8.80
2022-10-22T07:31:53.044Z,8.82
2022-10-22T07:34:22.185Z,8.85
2022-10-22T07:36:51.513Z,8.88
2022-10-22T07:39:20.692Z,8.90
2022-10-22T07:41:50.002Z,8.93
2022-10-22T07:44:19.246Z,8.96
2022-10-22T07:46:49.994Z,9.00
2022-10-22T07:49:19.228Z,9.02
2022-10-22T07:51:48.529Z,9.05
2022-10-22T07:54:19.335Z,9.09
2022-10-22T07:56:48.759Z,9.12
2022-10-22T07:59:17.942Z,9.15
2022-10-22T08:01:48.805Z,9.18
2022-10-22T08:04:18.020Z,9.22
2022-10-22T08:06:48.038Z,9.26
2022-10-22T08:09:17.305Z,9.28
2022-10-22T08:11:47.096Z,9.33
2022-10-22T08:14:15.961Z,9.36
2022-10-22T08:16:46.427Z,9.39
2022-10-22T08:19:18.964Z,9.47
2022-10-22T08:21:48.575Z,9.51
2022-10-22T08:24:18.070Z,9.57
2022-10-22T08:26:47.566Z,9.63
2022-10-22T08:29:17.056Z,9.68
2022-10-22T08:31:46.378Z,9.74
2022-10-22T08:34:17.064Z,9.81
2022-10-22T08:36:46.457Z,9.88
2022-10-22T08:39:15.799Z,9.92
2022-10-22T08:41:53.843Z,9.96
2022-10-22T08:44:51.149Z,10.02
2022-10-22T08:47:39.464Z,10.08
2022-10-22T08:50:14.536Z,10.13
2022-10-22T08:52:45.914Z,10.18
2022-10-22T08:55:17.063Z,10.23
2022-10-22T08:57:56.901Z,10.27
2022-10-22T09:00:32.471Z,10.34
2022-10-22T09:03:19.430Z,10.41
2022-10-22T09:05:58.582Z,10.48
2022-10-22T09:08:28.500Z,10.54
2022-10-22T09:11:03.836Z,10.61
2022-10-22T09:13:33.506Z,10.67
2022-10-22T09:16:15.393Z,10.74
2022-10-22T09:18:53.139Z,10.81
2022-10-22T09:21:34.206Z,10.88
2022-10-22T09:24:10.655Z,10.93
2022-10-22T09:26:42.106Z,10.98
2022-10-22T09:29:19.666Z,11.05
2022-10-22T09:31:49.139Z,11.09
2022-10-22T09:34:21.773Z,11.14
2022-10-22T09:36:59.784Z,11.17
2022-10-22T09:39:33.389Z,11.23
2022-10-22T09:42:02.616Z,11.27
2022-10-22T09:44:35.953Z,11.32
2022-10-22T09:47:07.143Z,11.36
2022-10-22T09:49:37.700Z,11.42
2022-10-22T09:52:27.767Z,11.48
2022-10-22T09:54:57.439Z,11.52
2022-10-22T09:57:27.508Z,11.55
2022-10-22T09:59:57.559Z,11.58
2022-10-22T10:02:38.795Z,11.64
2022-10-22T10:05:10.082Z,11.66
2022-10-22T10:07:41.093Z,11.71
2022-10-22T10:10:20.823Z,11.76
2022-10-22T10:12:56.619Z,11.80
2022-10-22T10:15:34.030Z,11.83
2022-10-22T10:18:15.779Z,11.86
2022-10-22T10:20:54.468Z,11.90
2022-10-22T10:23:35.159Z,11.94
2022-10-22T10:26:11.484Z,11.98
2022-10-22T10:28:56.947Z,12.02
2022-10-22T10:31:40.360Z,12.07
2022-10-22T10:34:24.236Z,12.13
2022-10-22T10:37:02.658Z,12.19
2022-10-22T10:39:41.530Z,12.24
2022-10-22T10:42:23.225Z,12.30
2022-10-22T10:45:04.949Z,12.36
2022-10-22T10:48:09.664Z,12.40
2022-10-22T10:50:51.186Z,12.44
2022-10-22T10:53:36.507Z,12.51
2022-10-22T10:56:24.454Z,12.54
2022-10-22T10:59:03.116Z,12.59
2022-10-22T11:01:43.148Z,12.61
2022-10-22T11:04:41.882Z,12.65
2022-10-22T11:07:23.335Z,12.68
2022-10-22T11:10:11.166Z,12.73
2022-10-22T11:12:48.833Z,12.76
2022-10-22T11:15:28.343Z,12.79
2022-10-22T11:18:04.355Z,12.79
2022-10-22T11:20:50.042Z,12.82
2022-10-22T11:23:25.866Z,12.84
2022-10-22T11:25:55.456Z,12.85
2022-10-22T11:28:33.289Z,12.89
2022-10-22T11:31:07.429Z,12.91
2022-10-22T11:33:45.780Z,12.94
2022-10-22T11:36:17.035Z,12.95
2022-10-22T11:38:46.694Z,12.97
2022-10-22T11:41:20.151Z,13.01
2022-10-22T11:44:09.672Z,13.02
2022-10-22T11:46:47.088Z,13.02
2022-10-22T11:49:24.605Z,13.05
2022-10-22T11:52:07.447Z,13.05
2022-10-22T11:54:45.996Z,13.06
2022-10-22T11:57:21.792Z,13.08
2022-10-22T11:59:57.348Z,13.09
2022-10-22T12:02:39.787Z,13.13
2022-10-22T12:05:37.274Z,13.14
2022-10-22T12:08:22.077Z,13.15
2022-10-22T12:11:07.698Z,13.15
2022-10-22T12:14:03.287Z,13.17
2022-10-22T12:16:55.859Z,13.20
2022-10-22T12:19:31.462Z,13.20
2022-10-22T12:22:04.403Z,13.19
2022-10-22T12:24:36.553Z,13.20
2022-10-22T12:27:18.148Z,13.22
2022-10-22T12:29:50.609Z,13.22
2022-10-22T12:32:21.555Z,13.23
2022-10-22T12:34:52.712Z,13.26
2022-10-22T12:37:23.497Z,13.26
2022-10-22T12:39:53.409Z,13.26
2022-10-22T12:42:24.108Z,13.28
2022-10-22T12:44:57.953Z,13.30
2022-10-22T12:47:32.398Z,13.32
2022-10-22T12:50:06.251Z,13.32
2022-10-22T12:52:37.370Z,13.37
2022-10-22T12:55:10.380Z,13.39
2022-10-22T12:57:40.297Z,13.40
2022-10-22T13:00:23.028Z,13.40
2022-10-22T13:02:54.643Z,13.44
2022-10-22T13:05:27.864Z,13.46
2022-10-22T13:08:05.413Z,13.48
2022-10-22T13:10:37.532Z,13.48
2022-10-22T13:13:07.779Z,13.50
2022-10-22T13:15:40.347Z,13.50
2022-10-22T13:18:20.698Z,13.51
2022-10-22T13:20:56.202Z,13.55
2022-10-22T13:23:26.867Z,13.56
2022-10-22T13:26:04.581Z,13.54
2022-10-22T13:28:34.444Z,13.55
2022-10-22T13:31:11.190Z,13.59
2022-10-22T13:33:44.850Z,13.60
2022-10-22T13:36:17.598Z,13.58
2022-10-22T13:38:46.927Z,13.61
2022-10-22T13:41:23.806Z,13.64
2022-10-22T13:43:53.783Z,13.63
2022-10-22T13:46:24.170Z,13.63
2022-10-22T13:48:57.648Z,13.65
2022-10-22T13:51:37.047Z,13.72
2022-10-22T13:54:08.499Z,13.75
2022-10-22T13:56:38.361Z,13.74
2022-10-22T13:59:07.487Z,13.74
2022-10-22T14:01:37.795Z,13.74
2022-10-22T14:04:12.620Z,13.75
2022-10-22T14:06:45.199Z,13.75
2022-10-22T14:09:17.531Z,13.73
2022-10-22T14:11:47.024Z,13.71
2022-10-22T14:14:17.386Z,13.69
2022-10-22T14:16:47.110Z,13.70
2022-10-22T14:19:19.501Z,13.69
2022-10-22T14:21:49.484Z,13.70
2022-10-22T14:24:18.720Z,13.69
2022-10-22T14:26:48.243Z,13.69
2022-10-22T14:29:17.362Z,13.69
2022-10-22T14:31:46.698Z,13.69
2022-10-22T14:34:17.967Z,13.67
2022-10-22T14:36:47.408Z,13.68
2022-10-22T14:39:18.361Z,13.67
2022-10-22T14:41:48.227Z,13.66
2022-10-22T14:44:17.337Z,13.66
2022-10-22T14:46:46.969Z,13.65
2022-10-22T14:49:17.415Z,13.64
2022-10-22T14:51:46.743Z,13.64
2022-10-22T14:54:15.950Z,13.62
2022-10-22T14:56:45.085Z,13.65
2022-10-22T14:59:14.310Z,13.63
2022-10-22T15:01:43.435Z,13.62
2022-10-22T15:04:12.816Z,13.65
2022-10-22T15:06:43.925Z,13.63
2022-10-22T15:09:13.840Z,13.65
2022-10-22T15:11:43.154Z,13.62
2022-10-22T15:14:12.406Z,13.65
2022-10-22T15:16:41.855Z,13.62
2022-10-22T15:19:11.503Z,13.61
2022-10-22T15:24:16.797Z,13.59
2022-10-22T15:26:46.159Z,13.59
2022-10-22T15:29:15.397Z,13.61
2022-10-22T15:31:46.453Z,13.61
2022-10-22T15:34:19.862Z,13.60
2022-10-22T15:36:51.090Z,13.59
2022-10-22T15:39:20.453Z,13.61
2022-10-22T15:41:49.898Z,13.59
2022-10-22T15:44:19.948Z,13.58
2022-10-22T15:49:26.033Z,13.58
2022-10-22T15:51:57.376Z,13.58
2022-10-22T15:54:28.817Z,13.57
2022-10-22T15:56:59.906Z,13.57
2022-10-22T15:59:29.260Z,13.57
2022-10-22T16:01:58.672Z,13.58
2022-10-22T16:04:27.967Z,13.60
2022-10-22T16:06:59.098Z,13.59
2022-10-22T16:09:29.397Z,13.58
2022-10-22T16:11:58.886Z,13.58
2022-10-22T16:14:29.046Z,13.60
2022-10-22T16:16:59.774Z,13.57
2022-10-22T16:19:29.257Z,13.57
2022-10-22T16:22:02.267Z,13.58
2022-10-22T16:24:32.327Z,13.61
2022-10-22T16:27:01.882Z,13.63
2022-10-22T16:29:31.154Z,13.64
2022-10-22T16:32:00.780Z,13.61
2022-10-22T16:34:30.471Z,13.63
2022-10-22T16:37:01.312Z,13.62
2022-10-22T16:39:30.934Z,13.63
2022-10-22T16:42:00.483Z,13.70
2022-10-22T16:44:29.628Z,13.68
2022-10-22T16:46:59.109Z,13.69
2022-10-22T16:49:28.312Z,13.66
2022-10-22T16:51:57.881Z,13.64
2022-10-22T16:54:28.387Z,13.65
2022-10-22T16:56:57.927Z,13.65
2022-10-22T16:59:27.038Z,13.64
2022-10-22T17:01:56.536Z,13.63
2022-10-22T17:04:25.770Z,13.60
2022-10-22T17:06:55.433Z,13.64
2022-10-22T17:09:25.546Z,13.64
2022-10-22T17:11:56.443Z,13.65
2022-10-22T17:14:25.873Z,13.64
2022-10-22T17:16:55.408Z,13.66
2022-10-22T17:19:25.026Z,13.66
2022-10-22T17:21:54.548Z,13.64
2022-10-22T17:24:23.718Z,13.65
2022-10-22T17:26:53.113Z,13.63
2022-10-22T17:29:25.475Z,13.62
2022-10-22T17:31:54.909Z,13.63
2022-10-22T17:34:24.037Z,13.62
2022-10-22T17:36:53.385Z,13.63
2022-10-22T17:39:22.509Z,13.63
2022-10-22T17:41:51.675Z,13.67
2022-10-22T17:44:20.859Z,13.67
2022-10-22T17:46:51.316Z,13.67
2022-10-22T17:49:21.625Z,13.66
2022-10-22T17:51:51.150Z,13.67
2022-10-22T17:54:20.327Z,13.66
2022-10-22T17:56:50.689Z,13.66
2022-10-22T17:59:19.985Z,13.68
2022-10-22T18:01:49.138Z,13.70
2022-10-22T18:04:22.033Z,13.70
2022-10-22T18:06:54.006Z,13.69
2022-10-22T18:09:24.953Z,13.73
2022-10-22T18:11:56.866Z,13.72
2022-10-22T18:14:26.199Z,13.70
2022-10-22T18:16:55.727Z,13.73
2022-10-22T18:19:26.691Z,13.74
2022-10-22T18:21:56.411Z,13.73
2022-10-22T18:24:25.393Z,13.72
2022-10-22T18:26:54.724Z,13.76
2022-10-22T18:29:23.909Z,13.79
2022-10-22T18:31:53.266Z,13.78
2022-10-22T18:34:25.146Z,13.78
2022-10-22T18:36:54.762Z,13.77
2022-10-22T18:39:24.373Z,13.76
2022-10-22T18:41:53.755Z,13.76
2022-10-22T18:44:24.819Z,13.78
2022-10-22T18:46:54.735Z,13.83
2022-10-22T18:49:25.433Z,13.84
2022-10-22T18:51:54.827Z,13.86
2022-10-22T18:54:24.574Z,13.85
2022-10-22T18:57:00.499Z,13.82
2022-10-22T18:59:31.367Z,13.81
2022-10-22T19:02:01.413Z,13.85
2022-10-22T19:04:37.093Z,13.87
2022-10-22T19:09:43.507Z,13.83
2022-10-22T19:12:15.178Z,13.82
2022-10-22T19:14:44.646Z,13.81
2022-10-22T19:17:13.697Z,13.80
2022-10-22T19:19:46.442Z,13.83
2022-10-22T19:22:15.841Z,13.82
2022-10-22T19:24:47.155Z,13.82
2022-10-22T19:27:16.687Z,13.87
2022-10-22T19:29:46.256Z,13.84
2022-10-22T19:32:16.623Z,13.86
2022-10-22T19:34:47.448Z,13.88
2022-10-22T19:37:16.838Z,13.86
2022-10-22T19:39:46.018Z,13.87
2022-10-22T19:42:15.182Z,13.86
2022-10-22T19:44:44.307Z,13.85
2022-10-22T19:47:13.821Z,13.82
2022-10-22T19:49:42.996Z,13.80
2022-10-22T19:52:14.758Z,13.81
2022-10-22T19:54:45.687Z,13.82
2022-10-22T19:57:17.681Z,13.84
2022-10-22T19:59:47.159Z,13.82
2022-10-22T20:02:18.196Z,13.81
2022-10-22T20:04:50.015Z,13.80
2022-10-22T20:07:21.621Z,13.79
2022-10-22T20:09:52.040Z,13.79
2022-10-22T20:12:22.024Z,13.78
2022-10-22T20:14:51.602Z,13.81
2022-10-22T20:17:21.068Z,13.84
2022-10-22T20:19:50.102Z,13.83
2022-10-22T20:22:20.834Z,13.82
2022-10-22T20:24:51.504Z,13.82
2022-10-22T20:27:21.500Z,13.81
2022-10-22T20:29:50.662Z,13.79
2022-10-22T20:32:22.161Z,13.79
2022-10-22T20:34:51.386Z,13.80
2022-10-22T20:37:22.127Z,13.80
2022-10-22T20:39:52.694Z,13.79
2022-10-22T20:42:22.149Z,13.80
2022-10-22T20:44:51.367Z,13.78
2022-10-22T20:47:20.872Z,13.78
2022-10-22T20:49:50.257Z,13.78
2022-10-22T20:52:19.598Z,13.77
2022-10-22T20:54:50.189Z,13.78
2022-10-22T20:57:19.649Z,13.77
2022-10-22T20:59:49.156Z,13.77
2022-10-22T21:02:18.563Z,13.76
2022-10-22T21:04:47.678Z,13.77
2022-10-22T21:07:17.005Z,13.79
2022-10-22T21:09:46.256Z,13.80
2022-10-22T21:12:17.027Z,13.80
2022-10-22T21:14:47.482Z,13.78
2022-10-22T21:17:17.026Z,13.76
2022-10-22T21:19:46.149Z,13.75
2022-10-22T21:22:15.637Z,13.77
2022-10-22T21:24:44.765Z,13.80
2022-10-22T21:27:16.044Z,13.82
2022-10-22T21:29:45.855Z,13.80
2022-10-22T21:32:15.178Z,13.79
2022-10-22T21:34:44.362Z,13.83
2022-10-22T21:37:13.426Z,13.84
2022-10-22T21:39:42.745Z,13.84
2022-10-22T21:42:11.784Z,13.80
2022-10-22T21:44:42.718Z,13.78
2022-10-22T21:47:12.070Z,13.77
2022-10-22T21:49:41.395Z,13.75
2022-10-22T21:52:10.462Z,13.74
2022-10-22T21:54:39.937Z,13.75
2022-10-22T21:57:09.263Z,13.79
2022-10-22T21:59:38.954Z,13.80
2022-10-22T22:02:09.532Z,13.77
2022-10-22T22:04:38.795Z,13.74
2022-10-22T22:07:08.178Z,13.72
2022-10-22T22:09:37.168Z,13.74
2022-10-22T22:12:06.794Z,13.72
2022-10-22T22:14:36.623Z,13.72
2022-10-22T22:17:06.039Z,13.73
2022-10-22T22:19:36.678Z,13.72
2022-10-22T22:22:06.119Z,13.72
2022-10-22T22:24:35.498Z,13.70
2022-10-22T22:27:04.973Z,13.71
2022-10-22T22:29:34.130Z,13.72
2022-10-22T22:32:03.642Z,13.70
2022-10-22T22:34:32.732Z,13.67
2022-10-22T22:37:03.318Z,13.68
2022-10-22T22:39:32.658Z,13.72
2022-10-22T22:42:01.716Z,13.69
2022-10-22T22:44:30.970Z,13.67
2022-10-22T22:47:00.036Z,13.68
2022-10-22T22:49:29.315Z,13.67
2022-10-22T22:51:58.383Z,13.67
2022-10-22T22:54:29.140Z,13.68
2022-10-22T22:56:58.967Z,13.69
2022-10-22T22:59:28.100Z,13.68
2022-10-22T23:01:57.673Z,13.69
2022-10-22T23:04:26.789Z,13.66
2022-10-22T23:06:55.973Z,13.65
2022-10-22T23:09:25.149Z,13.63
2022-10-22T23:11:56.056Z,13.63
2022-10-22T23:14:26.150Z,13.61
2022-10-22T23:16:55.525Z,13.62
2022-10-22T23:19:25.011Z,13.61
2022-10-22T23:21:56.244Z,13.61
2022-10-22T23:24:27.713Z,13.61
2022-10-22T23:27:01.243Z,13.60
2022-10-22T23:29:32.840Z,13.60
2022-10-22T23:32:03.631Z,13.60
2022-10-22T23:34:33.940Z,13.64
2022-10-22T23:37:03.485Z,13.65
2022-10-22T23:39:32.851Z,13.62
2022-10-22T23:42:03.720Z,13.61
2022-10-22T23:44:33.141Z,13.61
2022-10-22T23:47:03.259Z,13.64
2022-10-22T23:49:32.979Z,13.64
2022-10-22T23:52:02.441Z,13.61
2022-10-22T23:54:31.522Z,13.60
2022-10-22T23:57:02.413Z,13.59
2022-10-22T23:59:31.653Z,13.59
